createdAt,value
2019-02-17T00:00:24.834Z,229.03
2019-02-17T00:03:28.721Z,230.60
2019-02-17T00:06:32.563Z,225.97
2019-02-17T00:09:36.439Z,232.87
2019-02-17T00:12:40.285Z,238.57
2019-02-17T00:15:44.189Z,233.17
2019-02-17T00:18:48.190Z,211.40
2019-02-17T00:21:52.029Z,188.47
2019-02-17T00:24:55.949Z,207.23
2019-02-17T00:27:59.873Z,218.70
2019-02-17T00:31:03.816Z,213.30
2019-02-17T00:34:07.631Z,209.97
2019-02-17T00:37:11.499Z,215.87
2019-02-17T00:40:15.384Z,218.13
2019-02-17T00:43:19.229Z,226.87
2019-02-17T00:46:23.116Z,240.33
2019-02-17T00:49:27.876Z,245.50
2019-02-17T00:52:32.996Z,240.10
2019-02-17T00:55:36.841Z,241.70
2019-02-17T00:58:40.709Z,225.23
2019-02-17T01:01:44.619Z,245.53
2019-02-17T01:04:48.467Z,242.63
2019-02-17T01:07:52.358Z,252.13
2019-02-17T01:10:56.240Z,245.53
2019-02-17T01:14:00.143Z,252.03
2019-02-17T01:17:03.997Z,242.77
2019-02-17T01:20:09.800Z,271.33
2019-02-17T01:23:13.671Z,250.83
2019-02-17T01:26:17.502Z,255.40
2019-02-17T01:29:21.393Z,255.40
2019-02-17T01:32:25.226Z,260.27
2019-02-17T01:35:29.305Z,284.47
2019-02-17T01:38:33.156Z,282.10
2019-02-17T01:41:37.440Z,273.57
2019-02-17T01:44:41.267Z,264.23
2019-02-17T01:47:45.166Z,245.23
2019-02-17T01:50:49.109Z,267.63
2019-02-17T01:53:52.943Z,262.70
2019-02-17T01:56:56.836Z,269.47
2019-02-17T02:00:00.716Z,258.57
2019-02-17T02:03:05.971Z,259.27
2019-02-17T02:06:09.800Z,256.03
2019-02-17T02:09:13.694Z,253.87
2019-02-17T02:12:17.537Z,252.53
2019-02-17T02:15:21.423Z,267.47
2019-02-17T02:18:25.293Z,245.60
2019-02-17T02:21:29.151Z,251.03
2019-02-17T02:24:33.083Z,256.20
2019-02-17T02:27:36.975Z,233.10
2019-02-17T02:30:41.234Z,236.60
2019-02-17T02:33:45.116Z,222.47
2019-02-17T02:36:48.972Z,234.10
2019-02-17T02:39:52.854Z,199.07
2019-02-17T02:42:56.689Z,203.93
2019-02-17T02:46:00.555Z,196.00
2019-02-17T02:49:04.411Z,201.53
2019-02-17T02:52:08.271Z,188.07
2019-02-17T02:55:12.175Z,178.03
2019-02-17T02:58:16.017Z,176.93
2019-02-17T03:01:19.953Z,184.63
2019-02-17T03:04:23.783Z,177.17
2019-02-17T03:07:27.671Z,180.33
2019-02-17T03:10:31.544Z,168.87
2019-02-17T03:13:35.420Z,162.00
2019-02-17T03:16:39.304Z,148.10
2019-02-17T03:19:43.150Z,148.27
2019-02-17T03:22:47.076Z,139.43
2019-02-17T03:25:50.920Z,122.07
2019-02-17T03:28:54.791Z,125.10
2019-02-17T03:31:58.717Z,126.87
2019-02-17T03:35:02.571Z,132.87
2019-02-17T03:38:06.459Z,111.53
2019-02-17T03:41:10.288Z,134.27
2019-02-17T03:44:14.165Z,124.20
2019-02-17T03:47:18.006Z,116.73
2019-02-17T03:50:21.900Z,126.63
2019-02-17T03:53:25.748Z,128.83
2019-02-17T03:56:29.641Z,118.43
2019-02-17T03:59:33.523Z,123.50
2019-02-17T04:02:37.358Z,120.80
2019-02-17T04:05:41.256Z,124.50
2019-02-17T04:08:45.105Z,117.83
2019-02-17T04:11:48.997Z,112.80
2019-02-17T04:14:52.865Z,111.27
2019-02-17T04:17:56.713Z,129.63
2019-02-17T04:21:00.596Z,129.50
2019-02-17T04:24:04.463Z,122.63
2019-02-17T04:27:08.330Z,136.87
2019-02-17T04:30:12.291Z,139.27
2019-02-17T04:33:16.144Z,127.37
2019-02-17T04:36:20.058Z,143.27
2019-02-17T04:39:23.893Z,137.60
2019-02-17T04:42:27.771Z,145.17
2019-02-17T04:45:31.597Z,141.17
2019-02-17T04:48:35.470Z,141.50
2019-02-17T04:51:39.318Z,143.17
2019-02-17T04:54:43.255Z,137.33
2019-02-17T04:57:47.151Z,137.30
2019-02-17T05:00:51.003Z,146.03
2019-02-17T05:03:54.893Z,142.67
2019-02-17T05:06:58.737Z,151.90
2019-02-17T05:10:02.599Z,156.57
2019-02-17T05:13:06.461Z,144.63
2019-02-17T05:16:10.357Z,143.27
2019-02-17T05:19:14.211Z,166.13
2019-02-17T05:22:18.088Z,145.73
2019-02-17T05:25:21.977Z,159.83
2019-02-17T05:28:25.834Z,156.83
2019-02-17T05:31:29.720Z,152.10
2019-02-17T05:34:33.663Z,149.63
2019-02-17T05:37:37.540Z,163.20
2019-02-17T05:40:41.418Z,151.50
2019-02-17T05:43:45.275Z,144.17
2019-02-17T05:46:49.160Z,146.73
2019-02-17T05:49:53.018Z,133.20
2019-02-17T05:52:56.908Z,140.53
2019-02-17T05:56:00.994Z,133.73
2019-02-17T05:59:04.872Z,132.97
2019-02-17T06:02:08.770Z,137.50
2019-02-17T06:05:12.619Z,132.77
2019-02-17T06:08:16.543Z,129.03
2019-02-17T06:11:20.375Z,135.00
2019-02-17T06:14:24.274Z,118.83
2019-02-17T06:17:28.103Z,121.50
2019-02-17T06:20:31.995Z,113.47
2019-02-17T06:23:35.828Z,115.40
2019-02-17T06:26:39.751Z,110.37
2019-02-17T06:29:43.750Z,123.20
2019-02-17T06:32:47.635Z,106.80
2019-02-17T06:35:51.534Z,99.93
2019-02-17T06:38:55.396Z,105.83
2019-02-17T06:41:59.311Z,111.40
2019-02-17T06:45:03.349Z,98.27
2019-02-17T06:48:07.234Z,107.17
2019-02-17T06:51:11.142Z,104.60
2019-02-17T06:54:14.951Z,96.80
2019-02-17T06:57:20.416Z,98.40
2019-02-17T07:00:25.818Z,97.17
2019-02-17T07:03:29.928Z,89.70
2019-02-17T07:06:37.878Z,94.63
2019-02-17T07:09:41.707Z,87.53
2019-02-17T07:12:45.597Z,92.60
2019-02-17T07:15:49.437Z,96.60
2019-02-17T07:18:53.329Z,91.70
2019-02-17T07:21:57.156Z,92.83
2019-02-17T07:25:01.076Z,94.33
2019-02-17T07:28:04.909Z,103.27
2019-02-17T07:31:08.991Z,93.83
2019-02-17T07:34:12.901Z,93.23
2019-02-17T07:37:19.210Z,84.37
2019-02-17T07:40:22.301Z,88.57
2019-02-17T07:43:26.146Z,93.00
2019-02-17T07:46:30.035Z,88.93
2019-02-17T07:49:33.864Z,91.07
2019-02-17T07:52:37.936Z,91.03
2019-02-17T07:55:41.972Z,85.47
2019-02-17T07:58:45.944Z,90.43
2019-02-17T08:01:49.813Z,93.73
2019-02-17T08:04:53.671Z,82.80
2019-02-17T08:07:57.716Z,91.10
2019-02-17T08:11:04.032Z,89.13
2019-02-17T08:14:07.184Z,82.20
2019-02-17T08:17:11.063Z,92.27
2019-02-17T08:20:14.939Z,86.17
2019-02-17T08:23:18.823Z,88.73
2019-02-17T08:26:22.698Z,84.60
2019-02-17T08:29:26.605Z,96.73
2019-02-17T08:32:32.142Z,96.97
2019-02-17T08:35:36.028Z,95.23
2019-02-17T08:38:39.879Z,100.73
2019-02-17T08:41:43.722Z,100.33
2019-02-17T08:44:47.608Z,98.93
2019-02-17T08:47:51.432Z,97.80
2019-02-17T08:50:55.330Z,105.93
2019-02-17T08:53:59.184Z,104.37
2019-02-17T08:57:03.034Z,102.80
2019-02-17T09:00:14.345Z,92.00
2019-02-17T09:03:18.219Z,94.90
2019-02-17T09:06:22.097Z,88.37
2019-02-17T09:09:25.953Z,84.00
2019-02-17T09:12:29.835Z,83.63
2019-02-17T09:15:33.703Z,79.27
2019-02-17T09:18:37.572Z,73.87
2019-02-17T09:21:41.457Z,86.37
2019-02-17T09:24:45.304Z,93.93
2019-02-17T09:27:49.208Z,101.30
2019-02-17T09:30:53.145Z,80.53
2019-02-17T09:33:57.077Z,86.47
2019-02-17T09:37:00.990Z,88.43
2019-02-17T09:40:06.611Z,87.70
2019-02-17T09:43:10.504Z,79.07
2019-02-17T09:46:14.359Z,81.87
2019-02-17T09:49:18.234Z,93.10
2019-02-17T09:52:22.090Z,82.87
2019-02-17T09:55:25.972Z,87.17
2019-02-17T09:58:29.841Z,74.00
2019-02-17T10:01:33.663Z,72.03
2019-02-17T10:04:37.552Z,69.90
2019-02-17T10:07:41.395Z,79.27
2019-02-17T10:10:45.272Z,71.93
2019-02-17T10:13:49.189Z,64.37
2019-02-17T10:16:53.044Z,62.80
2019-02-17T10:19:56.906Z,62.03
2019-02-17T10:23:00.775Z,60.93
2019-02-17T10:26:04.706Z,63.00
2019-02-17T10:29:08.570Z,60.13
2019-02-17T10:32:12.456Z,62.63
2019-02-17T10:35:16.358Z,55.10
2019-02-17T10:38:20.256Z,54.67
2019-02-17T10:41:24.107Z,52.80
2019-02-17T10:44:27.980Z,51.45
2019-02-17T10:47:31.806Z,53.15
2019-02-17T10:50:35.670Z,53.80
2019-02-17T10:53:39.604Z,59.75
2019-02-17T10:56:43.506Z,46.85
2019-02-17T10:59:47.437Z,47.67
2019-02-17T11:02:51.291Z,52.25
2019-02-17T11:05:55.170Z,57.27
2019-02-17T11:08:59.090Z,55.60
2019-02-17T11:12:02.972Z,64.47
2019-02-17T11:15:30.420Z,67.07
2019-02-17T11:18:34.332Z,60.27
2019-02-17T11:21:38.167Z,64.77
2019-02-17T11:24:42.004Z,63.90
2019-02-17T11:27:45.915Z,69.83
2019-02-17T11:30:49.749Z,77.93
2019-02-17T11:33:53.604Z,71.83
2019-02-17T11:36:57.441Z,70.17
2019-02-17T11:40:01.330Z,68.60
2019-02-17T11:43:05.191Z,64.17
2019-02-17T11:46:09.024Z,61.23
2019-02-17T11:49:12.890Z,61.83
2019-02-17T11:52:16.716Z,62.77
2019-02-17T11:55:22.680Z,56.80
2019-02-17T11:58:26.140Z,61.90
2019-02-17T12:01:29.960Z,54.23
2019-02-17T12:04:36.092Z,53.27
2019-02-17T12:07:39.919Z,46.77
2019-02-17T12:10:44.192Z,41.30
2019-02-17T12:13:48.037Z,48.30
2019-02-17T12:16:51.916Z,44.27
2019-02-17T12:19:57.274Z,41.77
2019-02-17T12:23:02.810Z,36.47
2019-02-17T12:26:10.972Z,41.30
2019-02-17T12:29:16.376Z,40.37
2019-02-17T12:32:21.829Z,36.20
2019-02-17T12:35:25.653Z,38.70
2019-02-17T12:38:29.573Z,30.27
2019-02-17T12:41:33.444Z,36.73
2019-02-17T12:44:37.294Z,36.87
2019-02-17T12:47:41.174Z,34.40
2019-02-17T12:50:45.006Z,32.33
2019-02-17T12:53:48.869Z,41.07
2019-02-17T12:56:52.834Z,34.03
2019-02-17T12:59:56.671Z,36.07
2019-02-17T13:03:00.623Z,35.30
2019-02-17T13:06:04.451Z,29.03
2019-02-17T13:09:08.361Z,30.00
2019-02-17T13:12:12.184Z,31.67
2019-02-17T13:15:16.480Z,28.50
2019-02-17T13:18:20.352Z,30.90
2019-02-17T13:21:24.190Z,29.53
2019-02-17T13:24:28.062Z,34.07
2019-02-17T13:27:31.884Z,32.20
2019-02-17T13:30:35.760Z,33.40
2019-02-17T13:33:39.724Z,30.87
2019-02-17T13:36:43.591Z,32.33
2019-02-17T13:39:47.501Z,28.07
2019-02-17T13:42:51.296Z,31.50
2019-02-17T13:45:55.406Z,27.30
2019-02-17T13:48:59.298Z,27.03
2019-02-17T13:52:03.150Z,34.40
2019-02-17T13:55:07.367Z,33.80
2019-02-17T13:58:11.217Z,30.53
2019-02-17T14:01:15.104Z,32.00
2019-02-17T14:04:19.094Z,26.70
2019-02-17T14:07:22.948Z,26.00
2019-02-17T14:10:26.792Z,35.37
2019-02-17T14:13:30.660Z,32.43
2019-02-17T14:16:34.496Z,30.93
2019-02-17T14:19:38.390Z,28.77
2019-02-17T14:22:42.310Z,28.20
2019-02-17T14:25:46.135Z,27.73
2019-02-17T14:28:49.991Z,36.67
2019-02-17T14:31:53.839Z,28.53
2019-02-17T14:34:57.714Z,35.13
2019-02-17T14:38:01.531Z,30.10
2019-02-17T14:41:05.421Z,28.93
2019-02-17T14:44:09.225Z,32.63
2019-02-17T14:47:13.090Z,34.07
2019-02-17T14:50:16.972Z,29.70
2019-02-17T14:53:20.817Z,27.93
2019-02-17T14:56:24.695Z,29.20
2019-02-17T14:59:28.520Z,34.43
2019-02-17T15:02:32.391Z,37.57
2019-02-17T15:05:36.231Z,27.77
2019-02-17T15:08:40.131Z,33.50
2019-02-17T15:11:43.980Z,35.20
2019-02-17T15:14:48.029Z,36.43
2019-02-17T15:17:51.909Z,36.37
2019-02-17T15:20:55.761Z,32.30
2019-02-17T15:23:59.618Z,44.60
2019-02-17T15:27:03.473Z,42.43
2019-02-17T15:30:10.255Z,44.77
2019-02-17T15:33:14.128Z,44.67
2019-02-17T15:36:17.997Z,41.77
2019-02-17T15:39:21.873Z,44.70
2019-02-17T15:42:25.691Z,45.17
2019-02-17T15:45:29.572Z,37.63
2019-02-17T15:48:33.409Z,38.80
2019-02-17T15:51:37.270Z,43.40
2019-02-17T15:54:41.127Z,42.77
2019-02-17T15:57:44.977Z,45.40
2019-02-17T16:00:48.798Z,41.27
2019-02-17T16:03:52.604Z,42.83
2019-02-17T16:06:56.495Z,45.77
2019-02-17T16:10:00.324Z,43.20
2019-02-17T16:13:04.208Z,39.47
2019-02-17T16:16:09.402Z,49.07
2019-02-17T16:19:13.601Z,55.00
2019-02-17T16:22:17.459Z,48.17
2019-02-17T16:25:21.285Z,54.00
2019-02-17T16:28:25.153Z,55.37
2019-02-17T16:31:28.974Z,60.80
2019-02-17T16:34:38.442Z,61.27
2019-02-17T16:37:38.355Z,56.90
2019-02-17T16:40:42.163Z,60.23
2019-02-17T16:43:46.049Z,65.27
2019-02-17T16:46:49.891Z,65.33
2019-02-17T16:49:53.771Z,70.40
2019-02-17T16:52:57.617Z,77.03
2019-02-17T16:56:01.452Z,70.67
2019-02-17T16:59:05.415Z,71.60
2019-02-17T17:02:09.435Z,67.67
2019-02-17T17:05:13.305Z,85.30
2019-02-17T17:08:17.180Z,86.13
2019-02-17T17:11:21.112Z,73.37
2019-02-17T17:14:24.975Z,82.10
2019-02-17T17:17:28.879Z,81.00
2019-02-17T17:20:33.032Z,84.83
2019-02-17T17:23:37.325Z,73.20
2019-02-17T17:26:41.251Z,84.90
2019-02-17T17:29:45.119Z,74.67
2019-02-17T17:32:48.970Z,83.53
2019-02-17T17:35:52.820Z,73.90
2019-02-17T17:38:56.656Z,75.23
2019-02-17T17:42:00.529Z,77.10
2019-02-17T17:45:09.930Z,81.03
2019-02-17T17:48:13.766Z,83.80
2019-02-17T17:51:18.384Z,85.80
2019-02-17T17:54:22.187Z,98.40
2019-02-17T17:57:28.544Z,85.90
2019-02-17T18:00:33.937Z,92.50
2019-02-17T18:03:38.610Z,82.93
2019-02-17T18:06:42.847Z,88.10
2019-02-17T18:09:46.962Z,78.27
2019-02-17T18:12:52.242Z,89.87
2019-02-17T18:15:56.050Z,85.07
2019-02-17T18:18:59.900Z,83.83
2019-02-17T18:22:04.542Z,85.50
2019-02-17T18:25:11.469Z,88.43
2019-02-17T18:28:15.587Z,84.73
2019-02-17T18:31:19.845Z,85.97
2019-02-17T18:49:24.439Z,82.13
2019-02-17T19:08:36.551Z,89.43
2019-02-17T19:11:40.391Z,104.97
2019-02-17T19:14:44.255Z,107.87
2019-02-17T19:17:48.260Z,99.50
2019-02-17T19:20:52.104Z,96.93
2019-02-17T19:23:55.983Z,98.47
2019-02-17T19:26:59.947Z,92.33
2019-02-17T19:30:03.931Z,94.87
2019-02-17T19:33:07.829Z,100.40
2019-02-17T19:36:11.662Z,97.73
2019-02-17T19:39:15.743Z,94.93
2019-02-17T19:42:20.096Z,90.83
2019-02-17T19:45:24.048Z,102.10
2019-02-17T19:48:27.983Z,86.63
2019-02-17T19:51:33.437Z,82.07
2019-02-17T19:54:37.354Z,93.63
2019-02-17T19:57:41.751Z,100.63
2019-02-17T20:00:45.603Z,95.03
2019-02-17T20:03:50.999Z,98.13
2019-02-17T20:06:54.873Z,111.43
2019-02-17T20:09:58.736Z,120.53
2019-02-17T20:13:02.549Z,118.00
2019-02-17T20:16:06.462Z,124.57
2019-02-17T20:19:10.238Z,153.27
2019-02-17T20:22:14.365Z,135.00
2019-02-17T20:25:18.257Z,121.80
2019-02-17T20:28:32.442Z,123.97
2019-02-17T20:31:27.791Z,122.10
2019-02-17T20:34:31.650Z,107.57
2019-02-17T20:37:35.516Z,110.40
2019-02-17T20:40:39.377Z,122.30
2019-02-17T20:43:43.212Z,109.83
2019-02-17T20:46:47.089Z,113.90
2019-02-17T20:49:50.883Z,116.97
2019-02-17T20:52:54.751Z,114.80
2019-02-17T20:55:59.934Z,121.23
2019-02-17T20:59:03.800Z,117.80
2019-02-17T21:02:09.149Z,117.83
2019-02-17T21:05:13.247Z,110.97
2019-02-17T21:08:17.265Z,109.63
2019-02-17T21:11:21.112Z,109.50
2019-02-17T21:14:25.020Z,112.90
2019-02-17T21:17:28.912Z,117.57
2019-02-17T21:20:32.991Z,114.43
2019-02-17T21:23:36.899Z,116.27
2019-02-17T21:26:40.763Z,127.57
2019-02-17T21:29:44.697Z,123.67
2019-02-17T21:32:48.502Z,136.73
2019-02-17T21:35:52.366Z,143.03
2019-02-17T21:38:58.677Z,133.90
2019-02-17T21:42:01.711Z,140.80
2019-02-17T21:45:13.344Z,135.93
2019-02-17T21:48:17.197Z,142.30
2019-02-17T21:51:21.109Z,140.70
2019-02-17T21:54:24.931Z,144.40
2019-02-17T21:57:28.796Z,130.10
2019-02-17T22:00:32.620Z,128.63
2019-02-17T22:03:36.515Z,137.60
2019-02-17T22:06:40.335Z,129.47
2019-02-17T22:09:44.229Z,132.27
2019-02-17T22:12:50.900Z,132.53
2019-02-17T22:15:53.653Z,130.87
2019-02-17T22:18:57.500Z,124.43
2019-02-17T22:22:01.392Z,126.90
2019-02-17T22:25:07.333Z,136.23
2019-02-17T22:28:11.225Z,180.73
2019-02-17T22:31:15.076Z,170.17
2019-02-17T22:34:18.933Z,222.43
2019-02-17T22:37:22.760Z,244.13
2019-02-17T22:40:26.617Z,257.77
2019-02-17T22:43:30.532Z,241.40
2019-02-17T22:46:34.376Z,219.70
2019-02-17T22:49:38.265Z,189.03
2019-02-17T22:52:42.083Z,178.50
2019-02-17T22:55:45.931Z,176.97
2019-02-17T22:58:49.776Z,188.83
2019-02-17T23:01:53.719Z,155.47
2019-02-17T23:04:57.570Z,148.70
2019-02-17T23:08:01.449Z,138.00
2019-02-17T23:11:05.321Z,142.53
2019-02-17T23:14:09.176Z,140.53
2019-02-17T23:17:13.029Z,142.47
2019-02-17T23:20:16.934Z,130.70
2019-02-17T23:23:20.800Z,147.00
2019-02-17T23:26:24.644Z,132.67
2019-02-17T23:29:28.512Z,138.83
2019-02-17T23:32:32.347Z,138.47
2019-02-17T23:35:36.178Z,120.13
2019-02-17T23:38:40.038Z,137.87
2019-02-17T23:41:43.854Z,135.10
2019-02-17T23:44:47.732Z,126.90
2019-02-17T23:47:51.630Z,141.73
2019-02-17T23:50:55.444Z,144.30
2019-02-17T23:53:59.296Z,134.87
2019-02-17T23:57:03.122Z,127.47
